Time;durP1;ratioP1;P1;durP2;ratioP2;P2;SDS_P1;SDS_P2;PMS_P1;PMS_P2;Temp;Humidity;BMP_temperature;BMP_pressure;BME280_temperature;BME280_humidity;BME280_pressure;Samples;Min_cycle;Max_cycle;Signal;HPM_P1;HPM_P2
2023/10/09 00:00:35;;;;;;;13.50;7.60;;;15.40;78.90;;;;;;5059060;28;20475;-78
2023/10/09 00:03:06;;;;;;;13.43;6.80;;;15.40;78.80;;;;;;5038576;28;20871;-78
2023/10/09 00:05:45;;;;;;;14.63;6.70;;;15.40;78.70;;;;;;5038915;28;20458;-80
2023/10/09 00:08:18;;;;;;;8.83;5.57;;;15.40;78.80;;;;;;5034145;28;20483;-79
2023/10/09 00:10:49;;;;;;;9.30;6.07;;;15.40;79.00;;;;;;5038658;28;20562;-79
2023/10/09 00:13:18;;;;;;;13.70;6.20;;;15.40;79.00;;;;;;5039583;28;20482;-79
2023/10/09 00:15:53;;;;;;;10.50;5.60;;;15.40;79.10;;;;;;5038837;28;20458;-79
2023/10/09 00:18:28;;;;;;;11.63;6.23;;;15.40;79.10;;;;;;5042425;28;20486;-79
2023/10/09 00:21:10;;;;;;;11.00;6.30;;;15.40;79.00;;;;;;5042352;28;20485;-79
2023/10/09 00:23:39;;;;;;;10.13;5.73;;;15.30;79.10;;;;;;5039608;28;20468;-79
2023/10/09 00:26:10;;;;;;;16.63;6.10;;;15.30;79.20;;;;;;5046159;28;20462;-79
2023/10/09 00:28:51;;;;;;;9.60;4.77;;;15.30;79.20;;;;;;5052336;28;20587;-79
2023/10/09 00:31:29;;;;;;;11.07;6.00;;;15.40;79.30;;;;;;5053634;28;20572;-78
2023/10/09 00:34:03;;;;;;;11.93;6.40;;;15.40;79.20;;;;;;5036686;28;20461;-78
2023/10/09 00:36:32;;;;;;;12.00;6.37;;;15.40;79.20;;;;;;5049263;28;21295;-79
2023/10/09 00:39:13;;;;;;;13.80;7.60;;;15.40;79.20;;;;;;5063122;28;20450;-79
2023/10/09 00:41:41;;;;;;;12.80;6.70;;;15.40;79.30;;;;;;5042976;28;22017;-79
2023/10/09 00:44:10;;;;;;;13.10;7.17;;;15.40;79.30;;;;;;5061775;28;20447;-78
2023/10/09 00:46:43;;;;;;;9.33;5.23;;;15.40;79.30;;;;;;5055672;28;20490;-78
2023/10/09 00:49:11;;;;;;;14.60;6.90;;;15.40;79.40;;;;;;5056153;28;20918;-79
2023/10/09 00:51:56;;;;;;;13.10;7.20;;;15.50;79.40;;;;;;5047637;28;20549;-79
2023/10/09 00:54:28;;;;;;;13.20;7.30;;;15.50;79.40;;;;;;5060416;28;20500;-79
2023/10/09 00:57:06;;;;;;;14.50;6.93;;;15.50;79.40;;;;;;5061183;28;21304;-78
2023/10/09 00:59:38;;;;;;;10.27;6.07;;;15.50;79.40;;;;;;5059929;28;20456;-79
2023/10/09 01:02:09;;;;;;;10.07;5.47;;;15.50;79.40;;;;;;5060789;28;20493;-78
2023/10/09 01:04:41;;;;;;;10.47;5.53;;;15.50;79.30;;;;;;5062219;28;20449;-79
2023/10/09 01:07:10;;;;;;;12.43;6.43;;;15.50;79.30;;;;;;5055077;28;21188;-78
2023/10/09 01:09:42;;;;;;;10.70;7.23;;;15.40;79.30;;;;;;5040247;28;20585;-79
2023/10/09 01:12:16;;;;;;;13.67;6.97;;;15.40;79.30;;;;;;5060859;28;20457;-79
2023/10/09 01:14:46;;;;;;;14.57;6.60;;;15.40;79.30;;;;;;5055904;28;20457;-79
2023/10/09 01:17:30;;;;;;;10.27;5.77;;;15.40;79.30;;;;;;5043455;28;20501;-79
2023/10/09 01:20:03;;;;;;;11.00;6.70;;;15.40;79.30;;;;;;5043878;28;20458;-79
2023/10/09 01:22:31;;;;;;;14.70;7.60;;;15.40;79.20;;;;;;5058340;28;20458;-79
2023/10/09 01:25:05;;;;;;;12.07;6.00;;;15.40;79.30;;;;;;5056381;28;20800;-79
2023/10/09 01:27:34;;;;;;;12.00;6.53;;;15.40;79.40;;;;;;5061383;28;20963;-79
2023/10/09 01:30:02;;;;;;;11.77;5.70;;;15.40;79.40;;;;;;5061397;28;20828;-79
2023/10/09 01:32:30;;;;;;;12.87;6.23;;;15.40;79.40;;;;;;5062065;28;20684;-79
2023/10/09 01:34:58;;;;;;;10.80;6.27;;;15.40;79.40;;;;;;5045180;28;20473;-79
2023/10/09 01:37:29;;;;;;;13.17;6.47;;;15.40;79.30;;;;;;5058960;28;20473;-79
2023/10/09 01:39:59;;;;;;;11.97;7.30;;;15.40;79.30;;;;;;5065335;28;20849;-79
2023/10/09 01:42:34;;;;;;;12.83;6.10;;;15.30;79.30;;;;;;5059646;28;20454;-79
2023/10/09 01:45:15;;;;;;;13.30;6.03;;;15.30;79.40;;;;;;5052508;28;20445;-79
2023/10/09 01:47:51;;;;;;;10.27;6.10;;;15.30;79.40;;;;;;5063121;28;20449;-78
2023/10/09 01:50:24;;;;;;;13.20;6.00;;;15.30;79.40;;;;;;5063735;28;20473;-77
2023/10/09 01:52:53;;;;;;;10.03;6.17;;;15.30;79.40;;;;;;5061178;28;20449;-80
2023/10/09 01:55:31;;;;;;;13.93;6.00;;;15.30;79.40;;;;;;5061411;28;20944;-78
2023/10/09 01:58:05;;;;;;;11.77;5.93;;;15.30;79.40;;;;;;5039575;28;21018;-77
2023/10/09 02:00:42;;;;;;;9.93;5.50;;;15.30;79.50;;;;;;5053592;28;21151;-80
2023/10/09 02:03:15;;;;;;;12.00;5.90;;;15.30;79.40;;;;;;5066247;28;20478;-77
2023/10/09 02:05:43;;;;;;;11.60;5.90;;;15.30;79.50;;;;;;5058422;28;20968;-79
2023/10/09 02:08:12;;;;;;;10.80;5.70;;;15.30;79.60;;;;;;5049566;28;21124;-80
2023/10/09 02:10:47;;;;;;;9.80;5.13;;;15.30;79.60;;;;;;5059779;28;20991;-80
2023/10/09 02:13:17;;;;;;;9.93;4.93;;;15.30;79.70;;;;;;5040718;28;20486;-79
2023/10/09 02:15:58;;;;;;;13.30;5.17;;;15.30;79.70;;;;;;5063613;28;20459;-81
2023/10/09 02:18:39;;;;;;;9.60;5.00;;;15.30;79.60;;;;;;5064037;28;20457;-79
2023/10/09 02:21:14;;;;;;;16.90;5.10;;;15.30;79.50;;;;;;5061949;28;20470;-79
2023/10/09 02:23:46;;;;;;;16.30;5.97;;;15.20;79.40;;;;;;5063907;28;20449;-78
2023/10/09 02:26:19;;;;;;;13.53;6.70;;;15.20;79.30;;;;;;5045730;28;20486;-78
2023/10/09 02:28:58;;;;;;;10.60;4.93;;;15.20;79.40;;;;;;5059972;28;20467;-79
2023/10/09 02:31:35;;;;;;;11.60;5.40;;;15.20;79.40;;;;;;5058253;28;21019;-79
2023/10/09 02:34:05;;;;;;;14.53;5.47;;;15.10;79.40;;;;;;5064300;28;20457;-80
2023/10/09 02:36:38;;;;;;;10.90;4.60;;;15.10;79.50;;;;;;5045554;28;20465;-79
2023/10/09 02:39:07;;;;;;;12.83;5.30;;;15.10;79.40;;;;;;5063609;28;20484;-79
2023/10/09 02:41:38;;;;;;;11.27;5.73;;;15.10;79.30;;;;;;5060399;28;20462;-79
2023/10/09 02:44:11;;;;;;;12.83;5.40;;;15.10;79.20;;;;;;5063387;28;20567;-79
2023/10/09 02:46:40;;;;;;;11.83;5.13;;;15.10;79.30;;;;;;5060525;28;20450;-80
2023/10/09 02:49:09;;;;;;;11.13;5.70;;;15.10;79.30;;;;;;5038315;28;20544;-79
2023/10/09 02:51:41;;;;;;;12.60;5.50;;;15.10;79.20;;;;;;5063720;28;20464;-80
2023/10/09 02:54:18;;;;;;;9.53;4.70;;;15.00;79.10;;;;;;5059775;28;20546;-79
2023/10/09 02:56:54;;;;;;;8.80;4.90;;;15.00;79.10;;;;;;5041696;28;21653;-79
2023/10/09 02:59:24;;;;;;;10.80;5.50;;;15.00;79.10;;;;;;5062503;28;20446;-80
2023/10/09 03:01:53;;;;;;;11.93;5.13;;;15.00;79.10;;;;;;5061217;28;20489;-78
2023/10/09 03:04:23;;;;;;;12.80;5.53;;;14.90;78.80;;;;;;5062404;28;20450;-77
2023/10/09 03:06:57;;;;;;;12.80;5.83;;;14.80;78.80;;;;;;5040552;28;20467;-80
2023/10/09 03:09:27;;;;;;;12.10;6.17;;;14.70;78.90;;;;;;5060756;28;20477;-79
2023/10/09 03:12:02;;;;;;;17.13;6.37;;;14.70;78.90;;;;;;5056244;28;20472;-80
2023/10/09 03:14:35;;;;;;;10.10;5.30;;;14.60;78.90;;;;;;5044971;28;21079;-78
2023/10/09 03:17:03;;;;;;;10.57;5.60;;;14.60;79.00;;;;;;5065358;28;20475;-78
2023/10/09 03:19:37;;;;;;;14.57;5.77;;;14.50;79.00;;;;;;5067996;28;20448;-79
2023/10/09 03:22:09;;;;;;;13.30;5.87;;;14.50;79.10;;;;;;5060337;28;20473;-80
2023/10/09 03:24:38;;;;;;;11.80;5.70;;;14.50;79.30;;;;;;5061181;28;20565;-81
2023/10/09 03:27:07;;;;;;;11.33;5.73;;;14.50;79.30;;;;;;5046121;28;20552;-79
2023/10/09 03:29:37;;;;;;;14.77;5.70;;;14.50;79.40;;;;;;5041941;28;20473;-80
2023/10/09 03:32:06;;;;;;;8.17;5.07;;;14.60;79.40;;;;;;5052953;28;20505;-80
2023/10/09 03:34:34;;;;;;;10.87;6.00;;;14.60;79.40;;;;;;5057005;28;20523;-79
2023/10/09 03:37:06;;;;;;;12.73;6.03;;;14.60;79.50;;;;;;5061970;28;20496;-75
2023/10/09 03:39:38;;;;;;;10.33;6.07;;;14.60;79.50;;;;;;5046116;28;20542;-79
2023/10/09 03:42:19;;;;;;;14.37;5.73;;;14.60;79.50;;;;;;5061692;28;20475;-79
2023/10/09 03:44:53;;;;;;;12.27;5.83;;;14.60;79.50;;;;;;5061945;28;20523;-79
2023/10/09 03:47:24;;;;;;;11.37;6.00;;;14.60;79.50;;;;;;5064881;28;20445;-78
2023/10/09 03:49:53;;;;;;;10.50;5.10;;;14.60;79.60;;;;;;5059943;28;20474;-78
2023/10/09 03:52:25;;;;;;;13.70;4.80;;;14.60;79.50;;;;;;5057323;28;20552;-79
2023/10/09 03:54:54;;;;;;;8.20;5.30;;;14.70;79.50;;;;;;5062666;28;20461;-78
2023/10/09 03:57:23;;;;;;;12.50;6.20;;;14.70;79.50;;;;;;5048231;28;20566;-79
2023/10/09 03:59:55;;;;;;;14.70;5.97;;;14.70;79.40;;;;;;5051800;28;20477;-79
2023/10/09 04:02:23;;;;;;;12.70;5.73;;;14.60;79.20;;;;;;5047913;28;20509;-77
2023/10/09 04:04:51;;;;;;;11.73;5.10;;;14.60;79.20;;;;;;5059499;28;20456;-79
2023/10/09 04:07:21;;;;;;;10.07;5.10;;;14.50;79.30;;;;;;5063834;28;21130;-79
2023/10/09 04:10:02;;;;;;;12.83;5.40;;;14.50;79.30;;;;;;5049768;28;20477;-79
2023/10/09 04:12:31;;;;;;;11.23;5.70;;;14.50;79.40;;;;;;5053397;28;20492;-79
2023/10/09 04:15:04;;;;;;;10.97;5.43;;;14.50;79.40;;;;;;5066286;28;20460;-77
2023/10/09 04:17:36;;;;;;;9.43;5.30;;;14.50;79.50;;;;;;5062175;28;20556;-79
2023/10/09 04:22:51;;;;;;;11.63;5.83;;;14.50;79.50;;;;;;5064390;28;20507;-78
2023/10/09 04:25:26;;;;;;;11.20;5.87;;;14.60;79.60;;;;;;5061779;28;21048;-79
2023/10/09 04:28:03;;;;;;;10.17;5.47;;;14.60;79.60;;;;;;5045853;28;20559;-79
2023/10/09 04:30:40;;;;;;;11.40;5.57;;;14.60;79.60;;;;;;5063245;28;20548;-79
2023/10/09 04:33:27;;;;;;;11.23;6.10;;;14.60;79.70;;;;;;5039901;28;20885;-80
2023/10/09 04:38:55;;;;;;;16.50;6.77;;;14.60;79.60;;;;;;5059323;28;20944;-78
2023/10/09 04:41:33;;;;;;;12.30;5.97;;;14.60;79.60;;;;;;5062566;28;20946;-79
2023/10/09 04:44:18;;;;;;;13.53;5.90;;;14.60;79.60;;;;;;5060431;28;20506;-79
2023/10/09 04:49:49;;;;;;;12.33;7.20;;;14.50;79.80;;;;;;5058917;28;20462;-78
2023/10/09 04:52:51;;;;;;;14.40;6.73;;;14.60;79.80;;;;;;5057788;28;21075;-78
2023/10/09 04:55:24;;;;;;;10.63;6.43;;;14.60;79.80;;;;;;5056208;28;20460;-79
2023/10/09 04:58:08;;;;;;;13.93;6.83;;;14.60;79.80;;;;;;5058521;28;20495;-78
2023/10/09 05:00:48;;;;;;;10.83;6.30;;;14.60;79.90;;;;;;5054092;28;20522;-79
2023/10/09 05:03:28;;;;;;;13.80;6.57;;;14.60;80.00;;;;;;5059944;28;21012;-78
2023/10/09 05:05:59;;;;;;;14.00;5.40;;;14.60;80.00;;;;;;5059248;28;20490;-79
2023/10/09 05:08:32;;;;;;;14.17;6.33;;;14.70;79.90;;;;;;5062324;28;20979;-79
2023/10/09 05:11:15;;;;;;;13.27;6.90;;;14.60;79.90;;;;;;5063396;28;20554;-77
2023/10/09 05:13:46;;;;;;;9.90;5.93;;;14.60;79.90;;;;;;5046138;28;20471;-79
2023/10/09 05:16:18;;;;;;;12.43;5.77;;;14.60;80.00;;;;;;5066440;28;20467;-78
2023/10/09 05:18:55;;;;;;;11.67;5.90;;;14.60;80.00;;;;;;5042299;28;20554;-78
2023/10/09 05:21:35;;;;;;;11.70;5.80;;;14.50;80.00;;;;;;5047765;28;20479;-79
2023/10/09 05:24:16;;;;;;;10.10;6.10;;;14.50;80.10;;;;;;5061386;28;20468;-77
2023/10/09 05:27:15;;;;;;;11.40;6.60;;;14.50;80.30;;;;;;5063404;28;20459;-78
2023/10/09 05:29:58;;;;;;;16.60;6.63;;;14.50;80.30;;;;;;5059302;28;20458;-80
2023/10/09 05:32:35;;;;;;;16.33;7.30;;;14.50;80.30;;;;;;5065830;28;21031;-78
2023/10/09 05:35:07;;;;;;;13.90;6.73;;;14.50;80.20;;;;;;5045692;28;20469;-78
2023/10/09 05:37:43;;;;;;;13.50;7.00;;;14.40;80.30;;;;;;5066300;28;20453;-78
2023/10/09 05:40:22;;;;;;;10.37;6.10;;;14.40;80.50;;;;;;5059834;28;20461;-78
2023/10/09 05:43:02;;;;;;;9.60;5.53;;;14.50;80.60;;;;;;5058120;28;20461;-77
2023/10/09 05:46:07;;;;;;;10.47;6.07;;;14.50;80.60;;;;;;5061196;28;20453;-79
2023/10/09 05:48:54;;;;;;;11.40;5.37;;;14.60;80.60;;;;;;5059345;28;20524;-76
2023/10/09 05:51:41;;;;;;;14.53;6.67;;;14.60;80.60;;;;;;5061775;28;20995;-80
2023/10/09 05:54:23;;;;;;;12.53;7.17;;;14.60;80.60;;;;;;5064574;28;20461;-78
2023/10/09 05:57:44;;;;;;;12.43;6.50;;;14.60;80.60;;;;;;5057463;28;20455;-78
2023/10/09 06:05:41;;;;;;;13.67;6.57;;;14.70;80.60;;;;;;5057650;28;20464;-79
2023/10/09 06:08:12;;;;;;;13.40;7.30;;;14.70;80.60;;;;;;5066647;28;20457;-78
2023/10/09 06:10:41;;;;;;;13.80;6.30;;;14.70;80.50;;;;;;5062841;28;20509;-78
2023/10/09 06:16:09;;;;;;;12.27;6.17;;;14.70;80.60;;;;;;5060529;28;20461;-78
2023/10/09 06:18:41;;;;;;;15.87;8.30;;;14.70;80.50;;;;;;5050569;28;20779;-78
2023/10/09 06:26:52;;;;;;;12.57;6.83;;;14.70;80.60;;;;;;5062997;28;20485;-78
2023/10/09 06:37:34;;;;;;;13.47;7.43;;;14.80;80.70;;;;;;5179614;27;20802;-77
2023/10/09 06:43:07;;;;;;;16.30;7.47;;;14.80;80.80;;;;;;5101097;28;20460;-78
2023/10/09 06:45:44;;;;;;;13.40;7.37;;;14.90;80.80;;;;;;5140713;27;20521;-78
2023/10/09 06:51:07;;;;;;;13.07;7.10;;;14.90;80.90;;;;;;5159897;27;20477;-77
2023/10/09 06:56:25;;;;;;;11.27;7.13;;;15.00;81.00;;;;;;5180841;27;20961;-77
2023/10/09 06:58:55;;;;;;;14.10;7.70;;;15.00;81.00;;;;;;5182315;27;20455;-78
2023/10/09 07:01:39;;;;;;;13.20;7.23;;;15.00;81.00;;;;;;5145467;27;20484;-77
2023/10/09 07:04:18;;;;;;;11.27;7.00;;;15.10;81.10;;;;;;5098381;28;21071;-78
2023/10/09 07:06:50;;;;;;;13.03;7.30;;;15.10;81.10;;;;;;5104211;28;20516;-78
2023/10/09 07:09:19;;;;;;;15.40;6.87;;;15.10;81.10;;;;;;5118266;28;20470;-78
2023/10/09 07:12:09;;;;;;;11.17;6.87;;;15.10;81.00;;;;;;5122719;28;20485;-78
2023/10/09 07:17:26;;;;;;;11.43;6.40;;;15.20;81.20;;;;;;5122151;28;20508;-78
2023/10/09 07:20:09;;;;;;;12.00;6.60;;;15.20;81.30;;;;;;5123544;28;20463;-78
2023/10/09 07:22:52;;;;;;;12.13;6.87;;;15.30;81.30;;;;;;5118724;28;20475;-77
2023/10/09 07:25:40;;;;;;;14.07;6.50;;;15.30;81.40;;;;;;5122444;28;21090;-78
2023/10/09 07:28:29;;;;;;;14.00;6.23;;;15.30;81.40;;;;;;5103386;28;20459;-78
2023/10/09 07:31:00;;;;;;;13.07;5.97;;;15.40;81.60;;;;;;5102404;28;20483;-78
2023/10/09 07:33:56;;;;;;;19.53;6.67;;;15.40;81.70;;;;;;5119999;28;20454;-78
2023/10/09 07:36:34;;;;;;;11.90;6.03;;;15.50;81.80;;;;;;5103070;28;20451;-78
2023/10/09 07:39:02;;;;;;;13.50;5.43;;;15.50;81.90;;;;;;5122947;28;20454;-78
2023/10/09 07:41:44;;;;;;;13.20;6.37;;;15.60;81.90;;;;;;5120107;28;20444;-79
2023/10/09 07:44:34;;;;;;;13.67;6.67;;;15.70;82.00;;;;;;5108139;27;21102;-79
2023/10/09 07:47:22;;;;;;;12.53;7.00;;;15.70;82.10;;;;;;5110443;28;20864;-77
2023/10/09 07:49:53;;;;;;;13.50;6.13;;;15.80;82.10;;;;;;5110757;28;20462;-79
2023/10/09 07:52:26;;;;;;;12.73;5.70;;;15.90;82.20;;;;;;5110569;28;21051;-79
2023/10/09 07:55:01;;;;;;;10.03;5.13;;;16.00;82.20;;;;;;5108842;28;20484;-78
2023/10/09 07:57:38;;;;;;;13.33;5.33;;;16.00;82.20;;;;;;5108214;28;20470;-79
2023/10/09 08:03:00;;;;;;;12.80;6.00;;;16.20;82.40;;;;;;5104866;28;20510;-80
2023/10/09 08:05:33;;;;;;;11.77;5.00;;;16.20;82.50;;;;;;5106031;28;20551;-78
2023/10/09 08:08:39;;;;;;;12.97;5.23;;;16.30;82.50;;;;;;5102602;28;20456;-79
2023/10/09 08:14:20;;;;;;;12.10;5.10;;;16.40;82.70;;;;;;5105293;28;20491;-79
2023/10/09 08:16:49;;;;;;;10.60;5.03;;;16.50;82.80;;;;;;5107678;28;20450;-78
2023/10/09 08:19:33;;;;;;;13.93;5.27;;;16.60;82.90;;;;;;5107574;28;20444;-79
2023/10/09 08:25:02;;;;;;;16.50;6.80;;;16.70;83.00;;;;;;5104481;28;20481;-76
2023/10/09 08:27:54;;;;;;;18.87;6.30;;;16.70;83.10;;;;;;5103201;28;20475;-78
2023/10/09 08:30:48;;;;;;;16.63;6.10;;;16.80;83.20;;;;;;5102283;27;20482;-78
2023/10/09 08:36:22;;;;;;;21.37;8.63;;;16.90;83.20;;;;;;5128096;27;20463;-78
2023/10/09 08:38:52;;;;;;;20.67;8.60;;;16.90;83.20;;;;;;5129165;27;20539;-78
2023/10/09 08:41:23;;;;;;;19.20;6.57;;;17.00;83.10;;;;;;5126656;27;20480;-77
2023/10/09 08:43:52;;;;;;;19.10;6.17;;;17.10;83.10;;;;;;5105462;27;20883;-78
2023/10/09 08:46:27;;;;;;;12.63;4.63;;;17.10;83.00;;;;;;5125618;27;20795;-78
2023/10/09 08:48:58;;;;;;;16.17;5.87;;;17.20;83.00;;;;;;5126431;27;20533;-79
2023/10/09 08:51:29;;;;;;;13.43;5.30;;;17.20;83.00;;;;;;5127432;27;20471;-78
2023/10/09 08:53:57;;;;;;;11.20;4.70;;;17.30;83.00;;;;;;5124958;27;20454;-78
2023/10/09 08:56:25;;;;;;;10.60;4.60;;;17.30;83.00;;;;;;5127126;27;20465;-79
2023/10/09 08:58:55;;;;;;;14.50;5.30;;;17.30;83.00;;;;;;5123676;27;20451;-78
2023/10/09 09:01:25;;;;;;;11.20;5.20;;;17.40;83.00;;;;;;5112254;27;21010;-79
2023/10/09 09:03:56;;;;;;;13.53;5.30;;;17.40;83.00;;;;;;5105237;28;20451;-78
2023/10/09 09:06:24;;;;;;;19.10;5.40;;;17.50;82.90;;;;;;5104388;28;20441;-78
2023/10/09 09:08:59;;;;;;;10.57;4.23;;;17.50;82.90;;;;;;5103356;28;20547;-78
2023/10/09 09:11:31;;;;;;;12.60;5.03;;;17.60;82.80;;;;;;5107362;28;20477;-78
2023/10/09 09:14:04;;;;;;;11.60;5.17;;;17.60;82.80;;;;;;5108547;27;20819;-79
2023/10/09 09:16:36;;;;;;;15.60;4.30;;;17.70;82.80;;;;;;5107961;28;20493;-79
2023/10/09 09:19:17;;;;;;;12.47;4.87;;;17.70;82.80;;;;;;5103752;28;20872;-78
2023/10/09 09:21:54;;;;;;;14.20;4.40;;;17.70;82.70;;;;;;5106794;28;21031;-79
2023/10/09 09:24:31;;;;;;;17.00;5.13;;;17.80;82.60;;;;;;5105008;28;20443;-78
2023/10/09 09:27:12;;;;;;;11.30;4.93;;;17.80;82.60;;;;;;5104392;28;20452;-79
2023/10/09 09:29:52;;;;;;;16.63;4.80;;;17.80;82.50;;;;;;5105757;28;20509;-77
2023/10/09 09:32:36;;;;;;;14.80;4.90;;;17.80;82.40;;;;;;5121370;27;20479;-78
2023/10/09 09:35:05;;;;;;;15.33;5.77;;;17.90;82.30;;;;;;5120576;27;20487;-78
2023/10/09 09:37:50;;;;;;;12.40;5.10;;;17.90;82.30;;;;;;5127091;27;20551;-78
2023/10/09 09:40:29;;;;;;;13.43;5.13;;;17.90;82.30;;;;;;5125036;27;20442;-78
2023/10/09 09:43:06;;;;;;;27.70;5.30;;;18.00;82.30;;;;;;5127565;27;20447;-77
2023/10/09 09:45:36;;;;;;;10.83;4.50;;;18.00;82.30;;;;;;5123418;27;20482;-78
2023/10/09 09:48:15;;;;;;;13.23;4.83;;;18.00;82.20;;;;;;5106381;27;20508;-78
2023/10/09 09:50:47;;;;;;;13.80;4.50;;;18.00;82.20;;;;;;5125653;27;20896;-79
2023/10/09 09:53:23;;;;;;;10.63;4.60;;;18.00;82.10;;;;;;5124224;27;21161;-78
2023/10/09 09:55:57;;;;;;;13.90;4.80;;;18.00;82.00;;;;;;5110115;27;20842;-78
2023/10/09 09:58:32;;;;;;;15.43;5.23;;;18.00;81.90;;;;;;5122851;27;20544;-78
2023/10/09 10:01:15;;;;;;;16.10;4.90;;;18.10;81.90;;;;;;5107984;27;20466;-77
2023/10/09 10:03:56;;;;;;;14.47;4.40;;;18.10;82.00;;;;;;5126407;27;20454;-77
2023/10/09 10:06:28;;;;;;;12.50;4.97;;;18.10;81.90;;;;;;5123003;27;20465;-78
2023/10/09 10:09:00;;;;;;;13.43;4.53;;;18.10;81.80;;;;;;5123105;27;21066;-77
2023/10/09 10:11:44;;;;;;;14.20;4.20;;;18.20;81.80;;;;;;5107213;27;20536;-79
2023/10/09 10:14:21;;;;;;;11.73;4.70;;;18.20;81.70;;;;;;5101176;27;21176;-77
2023/10/09 10:17:06;;;;;;;15.87;4.83;;;18.30;81.70;;;;;;5093182;27;20973;-78
2023/10/09 10:20:31;;;;;;;13.27;4.70;;;18.30;81.60;;;;;;5122668;27;20978;-77
2023/10/09 10:23:25;;;;;;;11.83;4.50;;;18.40;81.60;;;;;;5111443;28;20451;-77
2023/10/09 10:25:59;;;;;;;14.83;4.37;;;18.50;81.40;;;;;;5123114;27;20455;-79
2023/10/09 10:31:15;;;;;;;15.00;4.50;;;18.50;81.30;;;;;;5116362;28;20818;-78
2023/10/09 10:34:10;;;;;;;14.47;5.07;;;18.60;81.10;;;;;;5102272;28;20484;-79
2023/10/09 10:36:42;;;;;;;13.83;5.00;;;18.60;81.00;;;;;;5121189;28;20480;-79
2023/10/09 10:39:21;;;;;;;13.53;4.50;;;18.70;81.00;;;;;;5103351;28;20844;-78
2023/10/09 10:41:55;;;;;;;12.90;4.20;;;18.70;80.80;;;;;;5098537;28;20464;-79
2023/10/09 10:44:41;;;;;;;16.23;4.83;;;18.70;80.60;;;;;;5116187;28;20452;-78
2023/10/09 10:47:24;;;;;;;15.97;5.03;;;18.70;80.60;;;;;;5101485;28;20459;-77
2023/10/09 10:49:59;;;;;;;19.93;5.17;;;18.70;80.70;;;;;;5099995;28;20491;-78
2023/10/09 10:52:41;;;;;;;15.57;4.60;;;18.70;80.70;;;;;;5104372;28;20491;-78
2023/10/09 10:58:10;;;;;;;15.20;4.53;;;18.80;80.50;;;;;;5070661;28;20468;-79
2023/10/09 11:03:35;;;;;;;15.50;4.70;;;18.90;80.40;;;;;;5102721;28;20538;-78
2023/10/09 11:06:14;;;;;;;16.63;4.97;;;18.90;80.20;;;;;;5104102;28;20945;-79
2023/10/09 11:08:54;;;;;;;21.00;6.57;;;18.90;80.20;;;;;;5103303;28;20452;-79
2023/10/09 11:11:40;;;;;;;14.97;4.93;;;18.90;80.20;;;;;;5103682;28;20822;-78
2023/10/09 11:14:14;;;;;;;13.33;4.70;;;18.90;80.30;;;;;;5103981;28;20481;-79
2023/10/09 11:16:47;;;;;;;13.60;4.50;;;19.00;80.20;;;;;;5104500;28;21044;-76
2023/10/09 11:19:31;;;;;;;17.33;5.50;;;19.00;80.20;;;;;;5106197;28;20557;-79
2023/10/09 11:24:44;;;;;;;11.93;5.10;;;19.00;80.20;;;;;;5103903;28;20571;-78
2023/10/09 11:27:20;;;;;;;9.50;4.67;;;19.00;80.20;;;;;;5103680;28;20495;-78
2023/10/09 11:30:05;;;;;;;12.63;5.03;;;19.10;80.10;;;;;;5104962;28;20455;-79
2023/10/09 11:32:38;;;;;;;12.07;5.27;;;19.10;80.00;;;;;;5106933;27;20599;-78
2023/10/09 11:35:27;;;;;;;12.10;5.47;;;19.20;79.80;;;;;;5101165;28;20459;-78
2023/10/09 11:38:00;;;;;;;11.47;4.53;;;19.30;79.40;;;;;;5104146;28;20491;-77
2023/10/09 11:40:42;;;;;;;14.53;4.47;;;19.30;78.90;;;;;;5106457;28;20813;-78
2023/10/09 11:43:15;;;;;;;14.63;5.63;;;19.40;78.60;;;;;;5091037;28;20502;-78
2023/10/09 11:45:54;;;;;;;13.77;4.93;;;19.40;78.20;;;;;;5086668;28;20464;-78
2023/10/09 11:48:31;;;;;;;10.30;4.67;;;19.50;78.00;;;;;;5108059;28;20467;-77
2023/10/09 11:51:18;;;;;;;12.20;4.50;;;19.50;77.90;;;;;;5124948;27;20467;-79
2023/10/09 11:53:49;;;;;;;13.43;5.00;;;19.50;77.70;;;;;;5125365;27;20475;-79
2023/10/09 11:56:19;;;;;;;13.77;4.80;;;19.60;77.50;;;;;;5115169;27;20460;-78
2023/10/09 11:58:51;;;;;;;14.07;4.80;;;19.60;77.30;;;;;;5104899;28;20904;-78
2023/10/09 12:01:22;;;;;;;10.67;4.67;;;19.70;77.00;;;;;;5107668;28;20472;-79
2023/10/09 12:03:58;;;;;;;17.63;4.77;;;19.70;76.90;;;;;;5102324;28;21253;-79
2023/10/09 12:06:32;;;;;;;15.80;4.93;;;19.80;76.60;;;;;;5105686;28;20540;-79
2023/10/09 12:09:00;;;;;;;15.10;5.00;;;19.80;76.60;;;;;;5106827;28;20583;-78
2023/10/09 12:11:29;;;;;;;13.70;5.70;;;19.80;76.30;;;;;;5121968;27;20471;-77
2023/10/09 12:14:01;;;;;;;15.77;5.30;;;19.90;76.20;;;;;;5103115;28;20519;-78
2023/10/09 12:16:39;;;;;;;16.50;5.57;;;19.90;76.10;;;;;;5106296;28;20792;-79
2023/10/09 12:19:09;;;;;;;22.33;5.80;;;19.90;75.80;;;;;;5105556;27;20459;-76
2023/10/09 12:21:41;;;;;;;11.03;4.30;;;19.90;75.80;;;;;;5103365;28;20452;-77
2023/10/09 12:24:11;;;;;;;12.63;4.70;;;19.90;75.80;;;;;;5088137;28;20478;-79
2023/10/09 12:26:44;;;;;;;12.30;4.47;;;19.90;75.80;;;;;;5103972;28;20471;-79
2023/10/09 12:29:19;;;;;;;13.30;4.70;;;20.00;75.80;;;;;;5104283;28;20464;-78
2023/10/09 12:31:47;;;;;;;15.80;4.97;;;20.00;75.60;;;;;;5113550;27;20904;-78
2023/10/09 12:34:17;;;;;;;9.37;4.30;;;20.00;75.60;;;;;;5107093;28;20494;-78
2023/10/09 12:36:49;;;;;;;10.47;4.20;;;20.10;75.50;;;;;;5106758;28;20460;-78
2023/10/09 12:39:18;;;;;;;17.53;5.60;;;20.10;75.30;;;;;;5107482;28;20452;-77
2023/10/09 12:41:48;;;;;;;11.77;4.20;;;20.10;75.10;;;;;;5106764;28;20465;-78
2023/10/09 12:44:18;;;;;;;11.37;5.10;;;20.20;74.80;;;;;;5105603;28;20463;-78
2023/10/09 12:46:52;;;;;;;13.43;5.30;;;20.20;74.60;;;;;;5103234;28;20452;-78
2023/10/09 12:49:24;;;;;;;14.00;5.23;;;20.20;74.40;;;;;;5104516;28;20459;-78
2023/10/09 12:51:58;;;;;;;16.27;4.27;;;20.20;74.10;;;;;;5098348;28;20837;-78
2023/10/09 12:54:29;;;;;;;9.40;3.70;;;20.30;73.80;;;;;;5103214;28;21087;-79
2023/10/09 12:56:59;;;;;;;16.23;5.13;;;20.30;73.70;;;;;;5106254;28;20471;-78
2023/10/09 12:59:29;;;;;;;12.23;4.63;;;20.30;73.40;;;;;;5107306;27;20524;-79
2023/10/09 13:01:58;;;;;;;12.93;5.20;;;20.40;73.20;;;;;;5106695;28;20471;-78
2023/10/09 13:04:31;;;;;;;13.43;5.10;;;20.40;73.20;;;;;;5105523;28;20568;-78
2023/10/09 13:07:04;;;;;;;12.47;4.80;;;20.40;72.70;;;;;;5085187;28;20452;-78
2023/10/09 13:09:42;;;;;;;11.60;4.80;;;20.40;72.60;;;;;;5106468;28;20536;-77
2023/10/09 13:12:17;;;;;;;12.90;4.47;;;20.50;72.40;;;;;;5107032;28;20467;-78
2023/10/09 13:14:53;;;;;;;16.57;5.37;;;20.50;72.30;;;;;;5097233;28;20471;-78
2023/10/09 13:17:22;;;;;;;12.13;4.50;;;20.50;72.20;;;;;;5107514;28;21166;-77
2023/10/09 13:19:51;;;;;;;18.57;4.60;;;20.50;72.20;;;;;;5101718;28;20946;-77
2023/10/09 13:22:22;;;;;;;12.43;5.07;;;20.50;72.00;;;;;;5106747;28;20456;-78
2023/10/09 13:25:03;;;;;;;16.43;5.80;;;20.50;71.90;;;;;;5089865;28;20542;-78
2023/10/09 13:27:34;;;;;;;12.40;5.37;;;20.60;71.60;;;;;;5106069;28;20455;-78
2023/10/09 13:30:07;;;;;;;12.83;4.93;;;20.60;71.40;;;;;;5078931;28;20467;-78
2023/10/09 13:32:36;;;;;;;15.03;5.37;;;20.60;71.30;;;;;;5084309;28;20468;-78
2023/10/09 13:35:06;;;;;;;12.33;5.10;;;20.60;71.20;;;;;;5104691;28;20528;-78
2023/10/09 13:37:36;;;;;;;15.23;5.47;;;20.60;71.10;;;;;;5087787;28;20487;-78
2023/10/09 13:40:09;;;;;;;18.40;5.07;;;20.60;70.80;;;;;;5106742;28;20536;-78
2023/10/09 13:42:38;;;;;;;14.80;4.73;;;20.70;70.70;;;;;;5089109;28;20524;-78
2023/10/09 13:45:26;;;;;;;13.17;4.90;;;20.70;70.60;;;;;;5088564;28;20547;-78
2023/10/09 13:47:56;;;;;;;13.27;5.53;;;20.70;70.20;;;;;;5107907;28;20497;-78
2023/10/09 13:50:31;;;;;;;11.07;4.80;;;20.70;70.30;;;;;;5086467;28;20464;-78
2023/10/09 13:53:07;;;;;;;11.53;4.60;;;20.70;70.20;;;;;;5100664;28;20456;-78
2023/10/09 13:55:43;;;;;;;13.80;4.70;;;20.70;70.10;;;;;;5071815;28;20886;-78
2023/10/09 13:58:14;;;;;;;14.27;4.60;;;20.70;69.90;;;;;;5105779;28;20447;-78
2023/10/09 14:00:46;;;;;;;11.70;4.80;;;20.70;69.60;;;;;;5085170;28;20457;-78
2023/10/09 14:03:19;;;;;;;11.07;4.53;;;20.70;69.40;;;;;;5095128;28;20550;-78
2023/10/09 14:05:54;;;;;;;14.60;4.80;;;20.80;69.40;;;;;;5072775;28;20459;-78
2023/10/09 14:08:23;;;;;;;17.00;4.87;;;20.70;69.30;;;;;;5105673;28;20653;-78
2023/10/09 14:10:52;;;;;;;19.43;4.33;;;20.70;69.20;;;;;;5087644;28;20448;-78
2023/10/09 14:13:28;;;;;;;12.80;5.37;;;20.70;69.00;;;;;;5077223;28;20466;-78
2023/10/09 14:16:02;;;;;;;11.73;3.80;;;20.80;68.90;;;;;;5082496;28;20477;-77
2023/10/09 14:18:32;;;;;;;12.43;5.23;;;20.70;68.80;;;;;;5086699;28;20467;-76
2023/10/09 14:21:04;;;;;;;13.67;4.90;;;20.70;68.60;;;;;;5086342;28;20962;-77
2023/10/09 14:23:34;;;;;;;14.80;5.47;;;20.70;68.70;;;;;;5082559;28;20546;-77